Time;durP1;ratioP1;P1;durP2;ratioP2;P2;SDS_P1;SDS_P2;PMS_P1;PMS_P2;Temp;Humidity;BMP_temperature;BMP_pressure;BME280_temperature;BME280_humidity;BME280_pressure;Samples;Min_cycle;Max_cycle;Signal;HPM_P1;HPM_P2
2023/11/11 00:00:36;;;;;;;5.23;2.80;;;;;;;22.11;59.19;96015.47;5011775;28;20198;-26
2023/11/11 00:03:06;;;;;;;4.57;3.00;;;;;;;22.11;59.32;96011.16;5011890;28;20306;-26
2023/11/11 00:05:33;;;;;;;5.70;3.10;;;;;;;22.09;59.18;96002.66;5010874;28;20653;-27
2023/11/11 00:08:00;;;;;;;5.00;3.00;;;;;;;22.13;59.33;96006.06;5010309;28;20209;-26
2023/11/11 00:10:26;;;;;;;5.03;3.13;;;;;;;22.13;59.15;96003.50;5010913;28;20198;-26
2023/11/11 00:12:53;;;;;;;4.47;2.80;;;;;;;22.14;59.07;95992.44;5010551;28;20238;-25
2023/11/11 00:15:20;;;;;;;3.57;2.70;;;;;;;22.14;59.64;95990.72;5013874;28;20250;-25
2023/11/11 00:17:46;;;;;;;3.87;2.70;;;;;;;22.15;59.19;95991.56;5014626;28;20207;-25
2023/11/11 00:20:13;;;;;;;5.07;2.77;;;;;;;22.16;59.12;95990.72;5013602;28;20194;-24
2023/11/11 00:22:41;;;;;;;3.23;2.73;;;;;;;22.16;59.10;95988.16;5014029;28;20206;-25
2023/11/11 00:25:08;;;;;;;4.70;2.83;;;;;;;22.15;59.20;95979.66;5013794;28;20202;-26
2023/11/11 00:27:35;;;;;;;5.80;2.80;;;;;;;22.16;59.27;95977.94;5014044;28;20213;-26
2023/11/11 00:30:05;;;;;;;4.70;2.90;;;;;;;22.15;59.14;95979.66;5013903;28;20723;-25
2023/11/11 00:32:33;;;;;;;4.23;2.40;;;;;;;22.17;59.10;95980.50;5013769;28;20201;-25
2023/11/11 00:35:01;;;;;;;3.83;2.50;;;;;;;22.18;58.93;95981.34;5013538;28;20254;-25
2023/11/11 00:37:28;;;;;;;4.03;2.73;;;;;;;22.18;59.14;95977.09;5013843;28;20202;-25
2023/11/11 00:39:55;;;;;;;3.07;2.40;;;;;;;22.18;59.01;95977.09;5013672;28;20198;-25
2023/11/11 00:42:22;;;;;;;3.20;2.20;;;;;;;22.19;59.22;95977.94;5013923;28;20198;-24
2023/11/11 00:44:48;;;;;;;4.20;2.77;;;;;;;22.17;58.90;95972.81;5013307;28;20716;-24
2023/11/11 00:47:16;;;;;;;4.60;2.63;;;;;;;22.19;59.18;95978.78;5012904;28;20644;-25
2023/11/11 00:49:43;;;;;;;3.77;2.93;;;;;;;22.19;59.06;95973.69;5013528;28;20206;-25
2023/11/11 00:52:09;;;;;;;4.60;2.73;;;;;;;22.20;59.08;95977.09;5013676;28;20613;-25
2023/11/11 00:54:38;;;;;;;4.57;2.63;;;;;;;22.19;59.23;95977.94;5012727;28;20669;-25
2023/11/11 00:57:05;;;;;;;4.07;2.43;;;;;;;22.20;58.96;95977.94;5012464;28;20628;-25
2023/11/11 00:59:32;;;;;;;3.40;2.40;;;;;;;22.18;58.92;95969.41;5012581;28;20734;-26
2023/11/11 01:02:02;;;;;;;2.57;2.03;;;;;;;22.20;58.99;95980.50;5013203;28;20261;-25
2023/11/11 01:04:29;;;;;;;3.70;2.60;;;;;;;22.21;58.90;95973.69;5013282;28;20219;-26
2023/11/11 01:06:56;;;;;;;3.37;2.57;;;;;;;22.19;59.06;95967.69;5013437;28;20207;-25
2023/11/11 01:09:23;;;;;;;4.13;2.10;;;;;;;22.20;58.89;95971.97;5012793;28;20697;-25
2023/11/11 01:11:50;;;;;;;3.27;2.40;;;;;;;22.20;58.88;95962.59;5011314;28;20213;-24
2023/11/11 01:14:17;;;;;;;4.27;2.50;;;;;;;22.20;59.00;95957.47;5011207;28;20226;-25
2023/11/11 01:16:44;;;;;;;2.97;2.37;;;;;;;22.21;58.78;95956.63;5013037;28;20198;-24
2023/11/11 01:19:11;;;;;;;4.07;2.50;;;;;;;22.21;58.87;95960.88;5013098;28;20206;-25
2023/11/11 01:21:38;;;;;;;4.10;2.37;;;;;;;22.21;58.89;95958.34;5012714;28;20298;-25
2023/11/11 01:24:05;;;;;;;3.03;2.40;;;;;;;22.22;58.91;95952.34;5012363;28;20250;-25
2023/11/11 01:26:31;;;;;;;6.10;2.80;;;;;;;22.22;58.91;95954.91;5012300;28;20408;-26
2023/11/11 01:28:58;;;;;;;2.40;2.20;;;;;;;22.21;58.73;95945.53;5012304;28;20210;-26
2023/11/11 01:31:24;;;;;;;3.40;2.30;;;;;;;22.23;59.03;95944.69;5012881;28;20654;-25
2023/11/11 01:33:51;;;;;;;3.67;2.63;;;;;;;22.22;58.94;95937.88;5012621;28;20305;-26
2023/11/11 01:36:18;;;;;;;2.77;2.00;;;;;;;22.23;58.72;95938.72;5012572;28;20293;-25
2023/11/11 01:38:44;;;;;;;2.77;1.93;;;;;;;22.23;58.88;95936.16;4995454;28;20620;-25
2023/11/11 01:41:11;;;;;;;2.83;2.53;;;;;;;22.23;58.45;95941.28;5013006;28;20206;-23
2023/11/11 01:43:38;;;;;;;2.30;1.80;;;;;;;22.23;58.85;95938.72;5010120;28;20222;-26
2023/11/11 01:46:06;;;;;;;2.90;2.30;;;;;;;22.24;58.86;95937.88;5012780;28;20205;-25
2023/11/11 01:48:34;;;;;;;2.97;2.27;;;;;;;22.24;58.69;95937.88;5012287;28;20202;-26
2023/11/11 01:51:03;;;;;;;2.90;1.97;;;;;;;22.21;58.99;95927.63;5012455;28;20248;-24
2023/11/11 01:53:30;;;;;;;2.23;2.00;;;;;;;22.23;58.84;95931.06;4978636;28;20313;-25
2023/11/11 01:55:57;;;;;;;2.63;2.20;;;;;;;22.24;58.84;95938.72;4995006;28;20225;-25
2023/11/11 01:58:23;;;;;;;2.37;2.17;;;;;;;22.16;58.91;95930.19;5012250;28;20202;-25
2023/11/11 02:00:51;;;;;;;3.30;2.33;;;;;;;22.23;58.65;95938.72;4984440;28;20297;-25
2023/11/11 02:03:20;;;;;;;2.63;2.23;;;;;;;22.25;58.71;95942.97;5008510;28;20616;-26
2023/11/11 02:05:48;;;;;;;3.50;2.37;;;;;;;22.24;58.63;95942.97;4994493;28;20679;-25
2023/11/11 02:08:15;;;;;;;2.23;1.90;;;;;;;22.23;58.88;95942.13;5012397;28;20284;-25
2023/11/11 02:10:42;;;;;;;3.07;2.30;;;;;;;22.24;58.71;95943.84;4994607;28;20195;-25
2023/11/11 02:13:08;;;;;;;2.07;1.87;;;;;;;22.24;58.27;95948.97;4994589;28;20226;-26
2023/11/11 02:15:35;;;;;;;2.43;2.20;;;;;;;22.23;58.80;95954.91;4992624;28;20257;-25
2023/11/11 02:18:05;;;;;;;3.43;2.30;;;;;;;22.24;58.63;95951.53;4994801;28;20198;-24
2023/11/11 02:20:33;;;;;;;2.20;2.00;;;;;;;22.25;58.69;95950.66;5011685;28;20650;-26
2023/11/11 02:23:01;;;;;;;3.87;2.27;;;;;;;22.16;58.84;95929.31;5011953;28;20592;-25
2023/11/11 02:25:28;;;;;;;2.87;2.07;;;;;;;22.25;58.59;95940.44;5012009;28;20653;-26
2023/11/11 02:27:55;;;;;;;2.17;1.90;;;;;;;22.25;58.54;95930.19;5011039;28;20207;-25
2023/11/11 02:30:22;;;;;;;3.33;2.30;;;;;;;22.25;58.73;95922.50;5011995;28;20206;-25
2023/11/11 02:32:48;;;;;;;2.40;2.20;;;;;;;22.26;58.82;95926.75;4993995;28;20217;-26
2023/11/11 02:35:15;;;;;;;2.33;2.13;;;;;;;22.26;58.57;95920.81;5011686;28;20581;-27
2023/11/11 02:37:42;;;;;;;2.30;2.10;;;;;;;22.27;58.56;95912.28;5007991;28;20289;-25
2023/11/11 02:40:12;;;;;;;2.77;2.00;;;;;;;22.26;58.57;95906.28;5011874;28;20203;-25
2023/11/11 02:42:40;;;;;;;2.63;1.97;;;;;;;22.27;58.60;95909.72;5011205;28;20289;-25
2023/11/11 02:45:07;;;;;;;2.60;2.20;;;;;;;22.26;58.73;95908.03;5012051;28;20654;-25
2023/11/11 02:47:33;;;;;;;2.90;2.00;;;;;;;22.26;58.66;95897.78;5011178;28;20203;-25
2023/11/11 02:50:00;;;;;;;3.13;2.30;;;;;;;22.27;58.59;95894.38;5011310;28;20318;-26
2023/11/11 02:52:27;;;;;;;2.83;1.80;;;;;;;22.26;58.70;95898.63;5011023;28;20247;-25
2023/11/11 02:54:53;;;;;;;2.53;2.10;;;;;;;22.27;58.62;95905.47;5011470;28;20222;-25
2023/11/11 02:57:20;;;;;;;2.70;1.93;;;;;;;22.26;58.51;95893.50;5010898;28;20293;-25
2023/11/11 02:59:46;;;;;;;2.23;1.97;;;;;;;22.26;58.68;95895.22;5011579;28;20205;-25
2023/11/11 03:02:13;;;;;;;1.87;1.70;;;;;;;22.26;58.59;95893.50;5011052;28;20210;-23
2023/11/11 03:04:39;;;;;;;2.27;2.03;;;;;;;22.26;58.26;95893.50;5011353;28;20681;-26
2023/11/11 03:07:06;;;;;;;3.50;2.20;;;;;;;22.27;58.61;95891.81;5011628;28;20201;-26
2023/11/11 03:09:33;;;;;;;1.83;1.70;;;;;;;22.24;58.96;95891.81;5010842;28;20685;-25
2023/11/11 03:12:01;;;;;;;2.70;2.20;;;;;;;22.26;58.59;95888.38;5011034;28;20289;-26
2023/11/11 03:14:28;;;;;;;2.63;2.07;;;;;;;22.27;58.82;95891.81;5011082;28;20631;-25
2023/11/11 03:16:54;;;;;;;2.27;2.07;;;;;;;22.18;58.65;95872.19;5011107;28;20198;-26
2023/11/11 03:19:21;;;;;;;2.27;2.07;;;;;;;22.27;58.84;95887.56;5011079;28;20290;-26
2023/11/11 03:21:48;;;;;;;2.53;2.00;;;;;;;22.27;58.47;95886.69;5010828;28;20206;-25
2023/11/11 03:24:15;;;;;;;2.30;1.90;;;;;;;22.27;58.79;95886.69;5010935;28;20224;-26
2023/11/11 03:26:41;;;;;;;2.43;2.03;;;;;;;22.28;58.50;95885.81;5010907;28;20198;-26
2023/11/11 03:29:09;;;;;;;2.40;1.77;;;;;;;22.27;58.70;95884.13;5011153;28;20232;-26
2023/11/11 03:31:35;;;;;;;2.13;1.93;;;;;;;22.27;58.64;95887.56;5011074;28;20621;-25
2023/11/11 03:34:02;;;;;;;2.10;1.93;;;;;;;22.26;58.55;95880.72;5011327;28;20242;-25
2023/11/11 03:36:28;;;;;;;3.47;1.83;;;;;;;22.26;59.00;95877.31;5010756;28;20285;-24
2023/11/11 03:38:55;;;;;;;1.90;1.80;;;;;;;22.27;58.68;95873.91;5010926;28;20195;-25
2023/11/11 03:41:22;;;;;;;2.00;1.80;;;;;;;22.27;58.58;95874.75;5007675;28;20226;-25
2023/11/11 03:43:48;;;;;;;1.60;1.50;;;;;;;22.26;58.63;95872.19;5007762;28;20230;-25
2023/11/11 03:46:15;;;;;;;1.80;1.60;;;;;;;22.28;58.60;95870.47;5010753;28;20198;-25
2023/11/11 03:48:41;;;;;;;3.40;2.20;;;;;;;22.27;58.68;95879.00;5011088;28;20230;-25
2023/11/11 03:51:08;;;;;;;1.83;1.70;;;;;;;22.27;58.56;95873.91;5014812;28;20268;-25
2023/11/11 03:53:35;;;;;;;2.43;2.17;;;;;;;22.27;58.57;95881.56;5014863;28;20222;-26
2023/11/11 03:56:07;;;;;;;2.27;2.00;;;;;;;22.27;58.58;95884.13;5013210;28;20284;-26
2023/11/11 03:58:35;;;;;;;2.33;2.00;;;;;;;22.27;58.47;95885.00;5013715;28;20221;-26
2023/11/11 04:01:03;;;;;;;1.90;1.77;;;;;;;22.27;58.59;95889.25;5014551;28;20635;-26
2023/11/11 04:03:29;;;;;;;1.97;1.83;;;;;;;22.27;58.43;95885.00;5013841;28;20222;-25
2023/11/11 04:05:56;;;;;;;2.37;1.93;;;;;;;22.27;58.66;95886.69;5014596;28;20190;-26
2023/11/11 04:08:23;;;;;;;1.83;1.70;;;;;;;22.27;58.66;95882.44;5014239;28;20273;-24
2023/11/11 04:10:50;;;;;;;2.13;1.87;;;;;;;22.27;58.82;95887.56;5014047;28;20337;-25
2023/11/11 04:13:17;;;;;;;2.00;1.80;;;;;;;22.28;58.80;95879.00;5014070;28;20226;-25
2023/11/11 04:15:44;;;;;;;2.00;1.80;;;;;;;22.28;58.43;95880.72;5013580;28;20288;-25
2023/11/11 04:18:10;;;;;;;4.57;2.00;;;;;;;22.27;58.73;95881.56;5014297;28;20194;-25
2023/11/11 04:20:37;;;;;;;2.20;1.80;;;;;;;22.26;58.61;95880.72;5012737;28;20209;-24
2023/11/11 04:23:03;;;;;;;2.47;1.87;;;;;;;22.27;58.42;95891.81;5012917;28;20223;-25
2023/11/11 04:25:30;;;;;;;1.87;1.77;;;;;;;22.28;58.55;95893.50;5013458;28;20293;-26
2023/11/11 04:27:56;;;;;;;2.00;1.73;;;;;;;22.28;58.64;95902.03;5014059;28;20298;-26
2023/11/11 04:30:23;;;;;;;1.63;1.53;;;;;;;22.28;58.51;95901.19;5013930;28;20205;-25
2023/11/11 04:32:50;;;;;;;1.80;1.70;;;;;;;22.28;58.47;95914.84;5013585;28;20210;-25
2023/11/11 04:35:17;;;;;;;1.80;1.70;;;;;;;22.29;58.83;95902.91;5013753;28;20226;-26
2023/11/11 04:37:43;;;;;;;1.97;1.63;;;;;;;22.28;58.53;95909.72;5013375;28;20202;-25
2023/11/11 04:40:14;;;;;;;2.63;2.03;;;;;;;22.29;58.55;95915.69;5013580;28;20249;-26
2023/11/11 04:42:43;;;;;;;2.20;2.00;;;;;;;22.28;58.67;95921.66;5013528;28;20198;-26
2023/11/11 04:45:10;;;;;;;2.10;1.90;;;;;;;22.27;58.52;95920.81;5014069;28;20191;-25
2023/11/11 04:47:37;;;;;;;2.00;1.73;;;;;;;22.29;58.56;95931.06;5013430;28;20213;-25
2023/11/11 04:50:04;;;;;;;2.63;1.87;;;;;;;22.19;58.55;95927.63;5013295;28;20222;-25
2023/11/11 04:52:31;;;;;;;2.37;1.60;;;;;;;22.29;58.51;95961.75;5011867;28;20308;-25
2023/11/11 04:54:58;;;;;;;2.77;1.90;;;;;;;22.28;58.66;95966.03;5012859;28;20221;-25
2023/11/11 04:57:24;;;;;;;2.37;1.80;;;;;;;22.29;58.61;95974.56;5013451;28;20222;-25
2023/11/11 04:59:51;;;;;;;2.13;1.60;;;;;;;22.28;58.45;95986.50;5012941;28;20202;-25
2023/11/11 05:02:17;;;;;;;2.03;1.70;;;;;;;22.28;58.48;95960.03;5012307;28;20202;-26
2023/11/11 05:04:44;;;;;;;1.80;1.70;;;;;;;22.20;58.50;95928.50;5012932;28;20607;-25
2023/11/11 05:07:11;;;;;;;2.40;1.70;;;;;;;22.28;58.55;95950.66;5013009;28;20198;-25
2023/11/11 05:09:38;;;;;;;2.53;1.60;;;;;;;22.28;58.64;95970.28;5012645;28;20240;-26
2023/11/11 05:12:07;;;;;;;1.67;1.50;;;;;;;22.27;58.60;95981.38;5012496;28;20296;-25
2023/11/11 05:14:33;;;;;;;1.73;1.63;;;;;;;22.29;58.62;95997.59;5011895;28;20222;-26
2023/11/11 05:17:06;;;;;;;1.73;1.60;;;;;;;22.29;58.66;95992.47;5012256;28;20614;-24
2023/11/11 05:19:33;;;;;;;1.50;1.40;;;;;;;22.21;58.72;95973.69;5011230;28;20194;-26
2023/11/11 05:22:00;;;;;;;1.80;1.70;;;;;;;22.26;58.82;95997.59;5013057;28;20743;-25
2023/11/11 05:24:27;;;;;;;1.70;1.60;;;;;;;22.27;58.60;96000.16;5012696;28;20305;-26
2023/11/11 05:26:54;;;;;;;1.63;1.40;;;;;;;22.28;58.78;95994.16;5012133;28;20207;-26
2023/11/11 05:29:21;;;;;;;2.30;1.60;;;;;;;22.28;58.71;96006.97;5013561;28;20282;-25
2023/11/11 05:31:47;;;;;;;2.03;1.63;;;;;;;22.29;58.66;96010.38;5004736;28;20294;-26
2023/11/11 05:34:15;;;;;;;1.57;1.47;;;;;;;22.29;58.58;96010.38;5012504;28;20641;-25
2023/11/11 05:36:42;;;;;;;1.50;1.40;;;;;;;22.27;58.65;96012.94;5012252;28;20284;-25
2023/11/11 05:39:14;;;;;;;1.80;1.70;;;;;;;22.25;58.73;96014.63;5011725;28;20206;-25
2023/11/11 05:41:40;;;;;;;1.57;1.47;;;;;;;22.25;58.71;96022.31;5012135;28;20581;-27
2023/11/11 05:44:08;;;;;;;1.53;1.43;;;;;;;22.23;58.76;96020.59;5011968;28;20222;-26
2023/11/11 05:46:35;;;;;;;1.70;1.60;;;;;;;22.23;59.00;96026.56;5011651;28;20194;-23
2023/11/11 05:49:03;;;;;;;1.70;1.57;;;;;;;22.23;58.86;96035.97;5012442;28;20206;-25
2023/11/11 05:51:30;;;;;;;1.70;1.60;;;;;;;22.22;54.51;96026.56;5011111;28;20202;-25
2023/11/11 05:53:57;;;;;;;1.63;1.50;;;;;;;22.19;54.85;96044.47;5011764;28;20226;-25
2023/11/11 05:56:23;;;;;;;1.63;1.47;;;;;;;22.20;55.40;96041.91;5012256;28;20249;-26
2023/11/11 05:58:51;;;;;;;1.63;1.40;;;;;;;22.20;56.12;96038.50;5012102;28;20279;-24
2023/11/11 06:01:18;;;;;;;2.07;1.70;;;;;;;22.19;56.49;96047.03;5012087;28;20299;-25
2023/11/11 06:03:44;;;;;;;1.33;1.23;;;;;;;22.19;56.99;96055.56;4994351;28;20226;-24
2023/11/11 06:06:11;;;;;;;1.80;1.63;;;;;;;22.20;57.15;96053.88;5012009;28;20202;-25
2023/11/11 06:08:38;;;;;;;1.50;1.40;;;;;;;22.20;57.32;96056.44;5012057;28;20211;-26
2023/11/11 06:11:05;;;;;;;1.87;1.50;;;;;;;22.20;57.74;96064.09;5012088;28;20206;-27
2023/11/11 06:13:31;;;;;;;1.33;1.23;;;;;;;22.19;57.53;96073.47;5011520;28;20807;-25
2023/11/11 06:15:58;;;;;;;7.83;1.60;;;;;;;22.20;57.71;96082.00;5011676;28;20226;-25
2023/11/11 06:18:25;;;;;;;2.60;1.50;;;;;;;22.20;57.70;96079.47;5011684;28;20198;-26
2023/11/11 06:20:52;;;;;;;1.70;1.33;;;;;;;22.21;57.74;96082.03;5011747;28;20304;-26
2023/11/11 06:23:19;;;;;;;4.20;1.53;;;;;;;22.22;57.81;96093.94;5011842;28;20210;-25
2023/11/11 06:25:48;;;;;;;1.40;1.30;;;;;;;22.23;57.72;96093.09;5012385;28;20637;-25
2023/11/11 06:28:16;;;;;;;3.57;1.57;;;;;;;22.23;57.72;96095.66;4994156;28;20194;-26
2023/11/11 06:30:43;;;;;;;2.33;1.70;;;;;;;22.20;52.96;96105.88;5011949;28;20238;-25
2023/11/11 06:33:09;;;;;;;5.30;1.40;;;;;;;22.19;53.63;96106.72;5011534;28;20226;-25
2023/11/11 06:35:36;;;;;;;1.80;1.60;;;;;;;22.20;54.73;96095.63;5011471;28;20229;-24
2023/11/11 06:38:03;;;;;;;3.93;1.60;;;;;;;22.19;55.21;96109.28;5010832;28;20704;-25
2023/11/11 06:40:30;;;;;;;1.80;1.40;;;;;;;22.21;55.71;96114.41;5011897;28;20209;-25
2023/11/11 06:42:57;;;;;;;2.87;1.60;;;;;;;22.21;56.14;96124.66;5010866;28;20218;-26
2023/11/11 06:45:24;;;;;;;1.60;1.50;;;;;;;22.22;56.41;96132.34;5010112;28;20751;-25
2023/11/11 06:47:50;;;;;;;1.37;1.27;;;;;;;22.23;56.53;96136.59;5010402;28;20723;-24
2023/11/11 06:50:18;;;;;;;2.07;1.37;;;;;;;22.22;56.67;96147.69;5011463;28;20198;-25
2023/11/11 06:52:45;;;;;;;2.10;1.50;;;;;;;22.20;56.78;96148.53;5011405;28;20198;-25
2023/11/11 06:55:12;;;;;;;2.90;1.70;;;;;;;22.18;56.96;96143.41;5011253;28;20222;-25
2023/11/11 06:57:39;;;;;;;1.53;1.43;;;;;;;22.17;57.02;96140.84;5007229;28;20242;-25
2023/11/11 07:00:09;;;;;;;2.57;1.37;;;;;;;22.17;56.80;96135.72;5010822;28;20743;-25
2023/11/11 07:02:37;;;;;;;3.70;1.50;;;;;;;22.17;57.13;96140.84;4994171;28;20198;-26
2023/11/11 07:05:09;;;;;;;3.23;1.60;;;;;;;22.17;57.30;96146.81;5010584;28;20661;-26
2023/11/11 07:07:38;;;;;;;3.17;1.40;;;;;;;22.18;57.23;96160.47;5011001;28;20214;-26
2023/11/11 07:10:05;;;;;;;1.80;1.57;;;;;;;22.18;57.22;96180.94;5010018;28;20210;-26
2023/11/11 07:12:33;;;;;;;1.87;1.43;;;;;;;22.17;55.40;96164.72;5011417;28;20198;-25
2023/11/11 07:15:00;;;;;;;4.30;1.43;;;;;;;22.14;53.17;96166.41;5011210;28;20665;-26
2023/11/11 07:17:27;;;;;;;12.53;1.20;;;;;;;22.11;51.52;96185.16;5010234;28;20205;-25
2023/11/11 07:19:54;;;;;;;4.00;1.60;;;;;;;22.09;50.21;96186.88;5010971;28;20233;-25
2023/11/11 07:22:21;;;;;;;1.30;1.20;;;;;;;;;;5011281;28;20241;-25
2023/11/11 07:24:50;;;;;;;1.20;1.10;;;;;;;22.06;48.64;96198.78;5014710;28;20305;-26
2023/11/11 07:27:17;;;;;;;1.20;1.10;;;;;;;22.04;47.73;96213.25;5015041;28;20198;-25
2023/11/11 07:29:43;;;;;;;1.50;1.10;;;;;;;22.03;49.13;96214.09;5014974;28;20209;-25
2023/11/11 07:32:12;;;;;;;2.53;1.30;;;;;;;22.02;49.20;96215.78;5014614;28;20276;-25
2023/11/11 07:34:38;;;;;;;1.23;1.13;;;;;;;22.02;50.08;96226.03;5015445;28;20305;-25
2023/11/11 07:37:06;;;;;;;1.33;1.10;;;;;;;22.02;51.09;96226.03;5015101;28;20751;-25
2023/11/11 07:39:33;;;;;;;4.50;1.40;;;;;;;22.02;52.13;96226.03;5009558;28;20683;-25
2023/11/11 07:42:00;;;;;;;1.47;1.30;;;;;;;22.03;52.72;96238.00;5014988;28;20585;-25
2023/11/11 07:44:27;;;;;;;1.60;1.20;;;;;;;22.05;52.94;96240.56;5014869;28;20237;-24
2023/11/11 07:46:53;;;;;;;0.97;0.97;;;;;;;;;;5013346;28;20618;-26
2023/11/11 07:49:20;;;;;;;1.30;1.20;;;;;;;;;;5013573;28;20256;-25
2023/11/11 07:51:46;;;;;;;1.77;1.20;;;;;;;22.09;54.03;96265.31;5014585;28;20257;-23
2023/11/11 07:54:13;;;;;;;1.40;1.20;;;;;;;22.06;53.95;96276.38;5014054;28;20226;-27
2023/11/11 07:56:40;;;;;;;1.87;1.20;;;;;;;;;;5014589;28;20222;-26
2023/11/11 07:59:07;;;;;;;1.73;1.20;;;;;;;22.06;54.32;96278.94;5013310;28;20230;-25
2023/11/11 08:01:35;;;;;;;1.17;1.07;;;;;;;22.04;54.43;96283.19;5014215;28;20284;-26
2023/11/11 08:04:02;;;;;;;3.13;1.47;;;;;;;22.06;54.66;96278.94;5013719;28;20257;-25
2023/11/11 08:06:29;;;;;;;1.60;1.20;;;;;;;22.06;55.10;96286.63;5012692;28;20197;-26
2023/11/11 08:08:55;;;;;;;1.20;1.10;;;;;;;22.07;54.97;96287.47;5011670;28;20215;-25
2023/11/11 08:11:22;;;;;;;0.93;0.93;;;;;;;22.07;54.90;96300.25;5010490;28;20285;-25
2023/11/11 08:13:49;;;;;;;1.20;1.10;;;;;;;22.08;55.23;96304.53;5013069;28;20226;-23
2023/11/11 08:16:18;;;;;;;1.13;1.03;;;;;;;22.08;55.24;96302.00;5008154;28;20253;-24
2023/11/11 08:18:45;;;;;;;1.97;1.20;;;;;;;;;;5007668;28;20659;-25
2023/11/11 08:21:14;;;;;;;3.00;1.10;;;;;;;22.08;55.39;96317.34;5013691;28;20202;-26
2023/11/11 08:23:41;;;;;;;1.00;1.00;;;;;;;22.09;55.49;96314.78;5009797;28;20253;-26
2023/11/11 08:26:09;;;;;;;1.87;1.60;;;;;;;22.09;55.34;96342.94;5013241;28;20206;-25
2023/11/11 08:28:36;;;;;;;1.23;1.20;;;;;;;22.10;55.66;96341.22;5013543;28;20244;-25
2023/11/11 08:31:03;;;;;;;1.70;1.40;;;;;;;22.09;55.57;96345.50;5007742;28;20218;-25
2023/11/11 08:33:30;;;;;;;3.17;1.20;;;;;;;22.10;55.50;96338.66;5011627;28;20284;-25
2023/11/11 08:35:57;;;;;;;1.20;1.10;;;;;;;22.11;55.65;96338.66;5012749;28;20219;-25
2023/11/11 08:38:25;;;;;;;1.20;1.10;;;;;;;22.12;55.68;96358.31;5009370;28;20206;-25
2023/11/11 08:40:52;;;;;;;1.10;1.10;;;;;;;22.13;55.70;96352.34;4990372;28;20285;-25
2023/11/11 08:43:20;;;;;;;1.17;1.10;;;;;;;22.13;55.84;96354.91;5009061;28;20226;-26
2023/11/11 08:45:47;;;;;;;3.00;1.47;;;;;;;22.12;54.67;96354.88;5008037;28;20202;-26
2023/11/11 08:48:14;;;;;;;4.57;1.40;;;;;;;22.10;53.16;96357.44;5009984;28;20201;-24
2023/11/11 08:50:40;;;;;;;2.10;1.40;;;;;;;;;;5010526;28;20285;-25
2023/11/11 08:53:07;;;;;;;3.73;1.63;;;;;;;22.05;49.89;96365.91;5011483;28;20751;-25
2023/11/11 08:55:34;;;;;;;2.83;1.40;;;;;;;22.03;49.59;96368.47;5013116;28;20260;-26
2023/11/11 08:58:00;;;;;;;2.87;1.30;;;;;;;22.05;50.64;96365.91;5013830;28;20206;-25
2023/11/11 09:00:27;;;;;;;2.37;1.40;;;;;;;22.04;51.58;96370.16;5013869;28;20202;-25
2023/11/11 09:02:54;;;;;;;2.73;1.43;;;;;;;22.05;51.71;96365.91;5013627;28;20225;-25
2023/11/11 09:05:21;;;;;;;1.57;1.27;;;;;;;22.05;52.40;96376.16;5013808;28;20609;-25
2023/11/11 09:07:48;;;;;;;4.93;1.40;;;;;;;22.05;52.84;96382.09;4995994;28;20205;-25
2023/11/11 09:10:15;;;;;;;1.90;1.30;;;;;;;22.06;53.37;96380.41;5013651;28;20202;-25
2023/11/11 09:12:41;;;;;;;1.93;1.30;;;;;;;22.06;53.79;96388.97;5013420;28;20199;-26
2023/11/11 09:15:08;;;;;;;1.30;1.20;;;;;;;22.06;53.98;96378.72;5013524;28;20210;-26
2023/11/11 09:17:36;;;;;;;1.37;1.23;;;;;;;22.06;53.74;96380.41;5013231;28;20341;-26
2023/11/11 09:20:07;;;;;;;2.70;1.30;;;;;;;;;;5010915;28;20221;-25
2023/11/11 09:22:35;;;;;;;1.87;1.30;;;;;;;22.07;54.42;96394.91;5013102;28;20214;-26
2023/11/11 09:25:03;;;;;;;4.43;1.10;;;;;;;22.06;54.48;96386.41;5012911;28;20202;-26
2023/11/11 09:27:29;;;;;;;2.00;1.33;;;;;;;22.08;54.40;96405.16;5013516;28;20222;-26
2023/11/11 09:29:56;;;;;;;2.57;1.00;;;;;;;;;;5013248;28;20202;-25
2023/11/11 09:32:22;;;;;;;1.60;1.27;;;;;;;;;;5005385;28;20198;-25
2023/11/11 09:34:49;;;;;;;2.43;1.53;;;;;;;22.09;54.62;96411.16;5012947;28;20226;-25
2023/11/11 09:37:15;;;;;;;1.10;1.10;;;;;;;22.09;54.20;96408.59;5012785;28;20257;-25
2023/11/11 09:39:42;;;;;;;1.10;1.10;;;;;;;22.11;55.01;96414.59;5013154;28;20260;-26
2023/11/11 09:42:08;;;;;;;1.00;1.00;;;;;;;22.09;54.80;96414.56;5012821;28;20273;-25
2023/11/11 09:44:39;;;;;;;1.60;1.27;;;;;;;22.08;54.96;96423.06;4976365;28;20227;-25
2023/11/11 09:47:10;;;;;;;2.53;1.27;;;;;;;;;;5011086;28;20195;-26
2023/11/11 09:49:37;;;;;;;2.20;1.40;;;;;;;;;;5012271;28;20202;-26
2023/11/11 09:52:04;;;;;;;1.27;1.17;;;;;;;22.06;55.16;96427.34;5012986;28;20207;-26
2023/11/11 09:54:31;;;;;;;2.70;1.40;;;;;;;22.05;55.25;96429.88;5011616;28;20222;-26
2023/11/11 09:56:57;;;;;;;1.33;1.23;;;;;;;22.04;55.21;96425.59;4995282;28;20265;-26
2023/11/11 09:59:27;;;;;;;1.57;1.40;;;;;;;22.07;55.18;96428.19;4979678;28;20206;-26
2023/11/11 10:01:53;;;;;;;2.30;1.37;;;;;;;22.09;55.41;96436.72;4995315;28;20198;-26
2023/11/11 10:04:20;;;;;;;1.90;1.30;;;;;;;22.08;55.21;96443.53;4994742;28;20305;-25
2023/11/11 10:06:46;;;;;;;2.73;1.30;;;;;;;;;;5012815;28;20198;-25
2023/11/11 10:09:17;;;;;;;2.20;1.13;;;;;;;22.06;55.56;96439.25;4994879;28;20198;-25
2023/11/11 10:11:45;;;;;;;1.20;1.03;;;;;;;22.07;55.49;96435.84;5011511;28;20202;-26
2023/11/11 10:14:15;;;;;;;1.27;1.17;;;;;;;22.08;55.64;96435.03;5012190;28;20230;-25
2023/11/11 10:16:41;;;;;;;1.67;1.30;;;;;;;;;;5012069;28;20225;-25
2023/11/11 10:19:11;;;;;;;2.03;1.20;;;;;;;22.09;55.64;96449.53;5012573;28;20210;-25
2023/11/11 10:21:39;;;;;;;1.87;1.30;;;;;;;22.08;55.79;96442.72;5005922;28;20206;-26
2023/11/11 10:24:08;;;;;;;1.63;1.20;;;;;;;22.09;55.75;96444.41;4994937;28;20280;-26
2023/11/11 10:26:34;;;;;;;1.23;1.13;;;;;;;22.10;55.65;96451.22;5012100;28;20194;-26
2023/11/11 10:29:04;;;;;;;3.33;1.23;;;;;;;22.10;55.87;96451.22;5012056;28;20289;-25
2023/11/11 10:31:34;;;;;;;2.17;1.40;;;;;;;22.10;55.73;96452.09;4994712;28;20969;-25
2023/11/11 10:34:00;;;;;;;1.43;1.20;;;;;;;22.11;56.02;96463.22;5009053;28;20213;-25
2023/11/11 10:36:27;;;;;;;1.10;1.00;;;;;;;22.08;55.79;96466.56;4994507;28;20260;-25
2023/11/11 10:38:55;;;;;;;1.30;1.20;;;;;;;;;;5012007;28;20264;-25
2023/11/11 10:41:23;;;;;;;1.20;1.10;;;;;;;22.06;55.98;96464.84;4994718;28;20199;-26
2023/11/11 10:43:50;;;;;;;1.20;1.10;;;;;;;22.06;56.16;96467.41;5011834;28;20304;-26
2023/11/11 10:46:16;;;;;;;2.47;1.27;;;;;;;22.04;56.05;96464.84;5011762;28;20290;-26
2023/11/11 10:48:43;;;;;;;1.23;0.93;;;;;;;22.05;56.07;96475.94;5011951;28;20242;-26
2023/11/11 10:51:09;;;;;;;1.57;0.97;;;;;;;22.05;56.09;96468.25;4994088;28;20254;-25
2023/11/11 10:53:36;;;;;;;1.20;1.10;;;;;;;22.03;56.31;96469.94;5010595;28;20284;-25
2023/11/11 10:56:03;;;;;;;2.17;1.20;;;;;;;22.05;56.35;96473.38;4994230;28;20210;-25
2023/11/11 10:58:30;;;;;;;1.63;1.30;;;;;;;22.06;56.33;96475.94;4986466;28;20203;-26
2023/11/11 11:00:58;;;;;;;1.10;1.10;;;;;;;22.04;56.25;96467.38;4994200;28;20737;-25
2023/11/11 11:03:25;;;;;;;1.10;1.10;;;;;;;21.98;56.08;96448.53;5011679;28;20647;-25
2023/11/11 11:06:02;;;;;;;1.20;1.10;;;;;;;22.06;56.31;96469.97;4994272;28;20589;-25
2023/11/11 11:08:37;;;;;;;1.63;1.07;;;;;;;22.07;56.32;96476.78;4994218;28;20260;-26
2023/11/11 11:11:20;;;;;;;1.20;1.10;;;;;;;22.06;56.19;96469.97;4978412;28;20208;-25
2023/11/11 11:13:48;;;;;;;1.27;1.20;;;;;;;22.08;56.39;96468.28;5005546;28;20808;-25
2023/11/11 11:16:16;;;;;;;1.37;1.27;;;;;;;;;;4994012;28;20217;-25
2023/11/11 11:18:53;;;;;;;1.17;1.07;;;;;;;22.06;56.31;96463.16;5011328;28;20264;-25
2023/11/11 11:21:20;;;;;;;1.30;1.20;;;;;;;22.09;56.30;96465.75;5011619;28;20198;-25
2023/11/11 11:23:49;;;;;;;1.23;1.10;;;;;;;;;;5011585;28;20222;-25
2023/11/11 11:26:33;;;;;;;1.20;1.10;;;;;;;22.06;56.32;96462.28;5011461;28;20205;-25
2023/11/11 11:29:14;;;;;;;1.30;1.20;;;;;;;22.06;56.58;96464.84;5007008;28;20241;-26
2023/11/11 11:32:06;;;;;;;1.00;1.00;;;;;;;22.06;56.49;96460.59;4994829;28;20206;-26
2023/11/11 11:34:43;;;;;;;1.40;1.30;;;;;;;22.03;56.44;96465.69;5011418;28;20218;-26
2023/11/11 11:37:12;;;;;;;1.20;1.03;;;;;;;22.06;56.66;96467.41;5011524;28;20710;-25
2023/11/11 11:40:00;;;;;;;1.00;1.00;;;;;;;22.06;56.49;96472.53;4993785;28;20233;-25
2023/11/11 11:42:28;;;;;;;1.00;1.00;;;;;;;22.06;56.31;96478.50;4993990;28;20661;-25